createdAt,value
2019-01-04T00:00:37.340Z,101646.00
2019-01-04T00:03:09.727Z,101647.45
2019-01-04T00:05:39.263Z,101647.31
2019-01-04T00:08:09.138Z,101637.41
2019-01-04T00:10:38.915Z,101644.59
2019-01-04T00:13:09.266Z,101644.98
2019-01-04T00:15:39.090Z,101653.27
2019-01-04T00:18:08.559Z,101651.97
2019-01-04T00:20:38.021Z,101650.41
2019-01-04T00:23:07.533Z,101653.22
2019-01-04T00:25:37.026Z,101659.25
2019-01-04T00:28:06.504Z,101659.20
2019-01-04T00:30:36.324Z,101665.41
2019-01-04T00:33:06.328Z,101670.30
2019-01-04T00:35:35.779Z,101668.66
2019-01-04T00:38:05.386Z,101672.42
2019-01-04T00:40:34.861Z,101673.53
2019-01-04T00:43:04.324Z,101674.91
2019-01-04T00:45:33.880Z,101673.89
2019-01-04T00:48:03.333Z,101677.57
2019-01-04T00:50:32.808Z,101684.97
2019-01-04T00:53:02.269Z,101688.15
2019-01-04T00:55:56.144Z,101688.58
2019-01-04T00:58:43.622Z,101694.92
2019-01-04T01:01:25.186Z,101698.72
2019-01-04T01:04:09.785Z,101698.72
2019-01-04T01:06:59.770Z,101692.70
2019-01-04T01:09:50.819Z,101690.02
2019-01-04T01:12:57.610Z,101685.89
2019-01-04T01:15:45.293Z,101691.61
2019-01-04T01:18:29.811Z,101692.66
2019-01-04T01:21:34.196Z,101699.72
2019-01-04T01:24:38.807Z,101700.48
2019-01-04T01:27:17.098Z,101696.48
2019-01-04T01:30:21.952Z,101691.25
2019-01-04T01:33:10.262Z,101691.25
2019-01-04T01:35:59.746Z,101694.03
2019-01-04T01:38:49.023Z,101685.00
2019-01-04T01:41:56.502Z,101685.00
2019-01-04T01:44:50.717Z,101681.54
2019-01-04T01:47:23.348Z,101681.73
2019-01-04T01:50:24.691Z,101683.44
2019-01-04T01:52:54.157Z,101685.44
2019-01-04T01:55:23.633Z,101687.50
2019-01-04T01:57:53.241Z,101685.44
2019-01-04T02:00:23.018Z,101678.95
2019-01-04T02:02:52.498Z,101679.84
2019-01-04T02:05:22.263Z,101672.64
2019-01-04T02:07:53.683Z,101676.11
2019-01-04T02:10:23.149Z,101673.81
2019-01-04T02:12:52.981Z,101674.63
2019-01-04T02:15:22.440Z,101676.63
2019-01-04T02:17:52.462Z,101681.05
2019-01-04T02:20:22.167Z,101681.59
2019-01-04T02:22:51.994Z,101684.22
2019-01-04T02:25:21.448Z,101681.00
2019-01-04T02:27:50.923Z,101682.61
2019-01-04T02:30:20.679Z,101671.32
2019-01-04T02:32:50.138Z,101671.65
2019-01-04T02:35:19.896Z,101677.70
2019-01-04T02:37:49.372Z,101672.20
2019-01-04T02:40:18.934Z,101668.36
2019-01-04T02:42:48.735Z,101664.63
2019-01-04T02:45:18.216Z,101668.12
2019-01-04T02:47:47.678Z,101658.38
2019-01-04T02:50:17.144Z,101643.09
2019-01-04T02:52:46.773Z,101650.16
2019-01-04T02:55:16.307Z,101653.70
2019-01-04T02:57:45.758Z,101657.02
2019-01-04T03:00:15.483Z,101650.08
2019-01-04T03:02:44.943Z,101662.88
2019-01-04T03:05:14.491Z,101661.66
2019-01-04T03:07:43.953Z,101655.34
2019-01-04T03:10:13.484Z,101651.09
2019-01-04T03:12:42.941Z,101648.17
2019-01-04T03:15:12.417Z,101650.20
2019-01-04T03:17:41.861Z,101647.08
2019-01-04T03:20:11.332Z,101651.92
2019-01-04T03:22:40.860Z,101644.91
2019-01-04T03:25:10.332Z,101644.92
2019-01-04T03:27:39.785Z,101640.21
2019-01-04T03:30:09.259Z,101641.56
2019-01-04T03:32:38.718Z,101637.03
2019-01-04T03:35:08.353Z,101634.13
2019-01-04T03:37:37.805Z,101629.73
2019-01-04T03:40:09.665Z,101627.64
2019-01-04T03:42:39.342Z,101622.86
2019-01-04T03:45:08.805Z,101617.97
2019-01-04T03:47:38.542Z,101614.02
2019-01-04T03:50:08.002Z,101613.06
2019-01-04T03:52:37.457Z,101610.47
2019-01-04T03:55:06.918Z,101603.09
2019-01-04T03:57:36.664Z,101603.27
2019-01-04T04:00:08.294Z,101602.80
2019-01-04T04:02:37.748Z,101596.88
2019-01-04T04:05:07.209Z,101597.23
2019-01-04T04:07:36.672Z,101599.89
2019-01-04T04:10:07.618Z,101600.91
2019-01-04T04:12:37.384Z,101594.14
2019-01-04T04:15:07.107Z,101592.85
2019-01-04T04:17:36.568Z,101593.70
2019-01-04T04:20:07.254Z,101594.36
2019-01-04T04:22:36.706Z,101579.25
2019-01-04T04:25:06.262Z,101570.26
2019-01-04T04:27:35.709Z,101572.23
2019-01-04T04:30:07.503Z,101570.75
2019-01-04T04:32:37.326Z,101576.66
2019-01-04T04:35:06.799Z,101579.95
2019-01-04T04:37:36.249Z,101578.52
2019-01-04T04:40:05.958Z,101577.36
2019-01-04T04:42:35.426Z,101581.61
2019-01-04T04:45:05.103Z,101580.97
2019-01-04T04:47:34.592Z,101576.05
2019-01-04T04:50:04.048Z,101576.05
2019-01-04T04:52:33.651Z,101579.37
2019-01-04T04:55:03.409Z,101576.58
2019-01-04T04:57:32.856Z,101578.06
2019-01-04T05:00:02.401Z,101570.50
2019-01-04T05:02:31.871Z,101569.55
2019-01-04T05:05:01.619Z,101575.13
2019-01-04T05:07:31.161Z,101574.52
2019-01-04T05:10:00.778Z,101572.70
2019-01-04T05:12:30.238Z,101571.40
2019-01-04T05:14:59.691Z,101568.58
2019-01-04T05:17:29.168Z,101566.95
2019-01-04T05:19:58.661Z,101565.63
2019-01-04T05:22:28.222Z,101565.32
2019-01-04T05:24:57.674Z,101563.50
2019-01-04T05:27:27.142Z,101556.11
2019-01-04T05:29:56.616Z,101555.13
2019-01-04T05:32:26.083Z,101554.16
2019-01-04T05:34:55.728Z,101553.97
2019-01-04T05:37:25.380Z,101547.25
2019-01-04T05:39:54.840Z,101542.31
2019-01-04T05:42:24.541Z,101537.71
2019-01-04T05:44:54.938Z,101543.13
2019-01-04T05:47:24.772Z,101550.52
2019-01-04T05:49:54.474Z,101551.19
2019-01-04T05:52:24.280Z,101554.63
2019-01-04T05:54:53.728Z,101548.40
2019-01-04T05:57:23.196Z,101550.20
2019-01-04T05:59:52.651Z,101554.30
2019-01-04T06:02:22.129Z,101558.40
2019-01-04T06:04:53.549Z,101556.27
2019-01-04T06:07:24.649Z,101555.60
2019-01-04T06:09:54.144Z,101549.52
2019-01-04T06:12:23.931Z,101551.00
2019-01-04T06:14:53.394Z,101547.39
2019-01-04T06:17:23.233Z,101550.03
2019-01-04T06:19:52.704Z,101547.71
2019-01-04T06:22:22.170Z,101547.03
2019-01-04T06:24:51.640Z,101540.32
2019-01-04T06:27:21.109Z,101538.66
2019-01-04T06:29:50.558Z,101535.22
2019-01-04T06:32:20.036Z,101524.81
2019-01-04T06:34:49.491Z,101523.11
2019-01-04T06:37:20.165Z,101525.00
2019-01-04T06:39:49.624Z,101525.66
2019-01-04T06:42:19.091Z,101519.40
2019-01-04T06:44:48.547Z,101525.98
2019-01-04T06:47:18.274Z,101526.83
2019-01-04T06:49:47.737Z,101526.82
2019-01-04T06:52:17.191Z,101533.40
2019-01-04T06:55:18.811Z,101536.03
2019-01-04T06:57:48.337Z,101537.38
2019-01-04T07:00:17.810Z,101536.03
2019-01-04T07:02:47.277Z,101532.42
2019-01-04T07:05:16.727Z,101533.59
2019-01-04T07:07:46.198Z,101528.95
2019-01-04T07:10:16.235Z,101532.90
2019-01-04T07:12:46.162Z,101537.66
2019-01-04T07:15:15.616Z,101534.05
2019-01-04T07:17:45.081Z,101541.30
2019-01-04T07:20:14.621Z,101531.89
2019-01-04T07:22:44.070Z,101535.00
2019-01-04T07:25:13.529Z,101532.67
2019-01-04T07:27:43.029Z,101530.38
2019-01-04T07:30:12.776Z,101525.58
2019-01-04T07:32:42.238Z,101524.22
2019-01-04T07:35:12.011Z,101532.60
2019-01-04T07:37:41.487Z,101524.86
2019-01-04T07:40:10.941Z,101521.67
2019-01-04T07:42:40.412Z,101520.18
2019-01-04T07:45:10.309Z,101520.99
2019-01-04T07:47:39.779Z,101515.71
2019-01-04T07:50:09.302Z,101516.84
2019-01-04T07:52:38.977Z,101520.56
2019-01-04T07:55:08.879Z,101515.94
2019-01-04T07:57:38.435Z,101520.25
2019-01-04T08:00:10.706Z,101516.42
2019-01-04T08:02:42.783Z,101511.63
2019-01-04T08:05:19.213Z,101505.69
2019-01-04T08:07:48.687Z,101507.30
2019-01-04T08:10:18.143Z,101507.12
2019-01-04T08:12:47.615Z,101495.23
2019-01-04T08:15:17.059Z,101497.67
2019-01-04T08:17:46.526Z,101494.06
2019-01-04T08:20:16.323Z,101489.08
2019-01-04T08:22:45.804Z,101478.80
2019-01-04T08:25:15.257Z,101477.26
2019-01-04T08:27:44.722Z,101474.88
2019-01-04T08:30:14.333Z,101468.51
2019-01-04T08:32:43.877Z,101466.27
2019-01-04T08:35:13.342Z,101464.72
2019-01-04T08:37:43.073Z,101459.10
2019-01-04T08:40:12.838Z,101461.68
2019-01-04T08:42:42.301Z,101455.59
2019-01-04T08:45:11.748Z,101449.95
2019-01-04T08:47:41.218Z,101447.84
2019-01-04T08:50:10.933Z,101449.16
2019-01-04T08:52:40.722Z,101451.16
2019-01-04T08:55:10.174Z,101449.50
2019-01-04T08:57:40.040Z,101443.52
2019-01-04T09:00:13.052Z,101427.63
2019-01-04T09:02:42.785Z,101428.30
2019-01-04T09:05:12.214Z,101421.61
2019-01-04T09:07:41.696Z,101428.91
2019-01-04T09:10:11.146Z,101424.08
2019-01-04T09:12:40.972Z,101423.80
2019-01-04T09:15:10.423Z,101421.47
2019-01-04T09:17:39.880Z,101418.62
2019-01-04T09:20:09.792Z,101412.33
2019-01-04T09:22:39.321Z,101410.37
2019-01-04T09:25:09.240Z,101397.48
2019-01-04T09:27:40.925Z,101395.86
2019-01-04T09:30:12.066Z,101405.66
2019-01-04T09:32:41.530Z,101405.09
2019-01-04T09:35:10.980Z,101407.70
2019-01-04T09:37:40.444Z,101396.97
2019-01-04T09:40:09.969Z,101395.78
2019-01-04T09:42:40.094Z,101399.54
2019-01-04T09:45:09.810Z,101392.41
2019-01-04T09:47:39.278Z,101393.66
2019-01-04T09:50:08.994Z,101385.31
2019-01-04T09:52:38.444Z,101380.16
2019-01-04T09:55:07.908Z,101374.80
2019-01-04T09:57:37.483Z,101382.61
2019-01-04T10:00:09.383Z,101388.31
2019-01-04T10:02:38.842Z,101380.52
2019-01-04T10:05:08.860Z,101368.98
2019-01-04T10:07:38.323Z,101359.32
2019-01-04T10:10:09.313Z,101358.89
2019-01-04T10:12:39.938Z,101349.27
2019-01-04T10:15:14.657Z,101342.42
2019-01-04T10:17:44.129Z,101334.07
2019-01-04T10:20:13.601Z,101317.24
2019-01-04T10:22:43.043Z,101310.26
2019-01-04T10:25:12.506Z,101305.80
2019-01-04T10:27:41.965Z,101300.00
2019-01-04T10:30:14.654Z,101294.16
2019-01-04T10:32:44.189Z,101298.68
2019-01-04T10:35:13.674Z,101289.19
2019-01-04T10:37:43.118Z,101285.25
2019-01-04T10:40:12.583Z,101280.27
2019-01-04T10:42:42.042Z,101266.95
2019-01-04T10:45:11.836Z,101259.08
2019-01-04T10:47:41.458Z,101257.58
2019-01-04T10:50:10.969Z,101255.80
2019-01-04T10:52:40.438Z,101255.45
2019-01-04T10:55:09.902Z,101246.25
2019-01-04T10:57:39.351Z,101239.92
2019-01-04T11:00:10.813Z,101239.16
2019-01-04T11:02:40.264Z,101232.48
2019-01-04T11:05:09.982Z,101225.88
2019-01-04T11:07:39.441Z,101225.00
2019-01-04T11:10:11.833Z,101221.11
2019-01-04T11:12:41.286Z,101207.96
2019-01-04T11:15:10.729Z,101202.38
2019-01-04T11:17:40.256Z,101197.84
2019-01-04T11:20:29.364Z,101188.51
2019-01-04T11:23:01.765Z,101179.77
2019-01-04T11:25:54.206Z,101166.86
2019-01-04T11:28:41.932Z,101158.53
2019-01-04T11:31:40.123Z,101154.16
2019-01-04T11:34:24.541Z,101157.09
2019-01-04T11:37:03.236Z,101152.51
2019-01-04T11:39:35.862Z,101134.98
2019-01-04T11:42:11.974Z,101132.09
2019-01-04T11:44:53.439Z,101120.80
2019-01-04T11:47:47.109Z,101125.44
2019-01-04T11:50:32.284Z,101114.36
2019-01-04T11:53:03.723Z,101105.52
2019-01-04T11:55:33.446Z,101107.00
2019-01-04T11:58:02.884Z,101098.13
2019-01-04T12:00:32.337Z,101090.20
2019-01-04T12:03:01.789Z,101098.34
2019-01-04T12:05:31.257Z,101096.30
2019-01-04T12:08:00.700Z,101094.27
2019-01-04T12:10:30.156Z,101088.30
2019-01-04T12:12:59.875Z,101077.88
2019-01-04T12:15:29.401Z,101080.12
2019-01-04T12:17:58.846Z,101073.22
2019-01-04T12:20:28.616Z,101071.79
2019-01-04T12:22:58.041Z,101059.31
2019-01-04T12:25:27.503Z,101039.09
2019-01-04T12:27:56.942Z,101045.38
2019-01-04T12:30:26.398Z,101038.06
2019-01-04T12:32:55.845Z,101034.32
2019-01-04T12:35:25.301Z,101029.44
2019-01-04T12:37:54.784Z,101008.89
2019-01-04T12:40:24.236Z,101011.86
2019-01-04T12:42:54.253Z,101012.59
2019-01-04T12:45:23.732Z,101008.52
2019-01-04T12:47:53.172Z,100997.62
2019-01-04T12:50:22.637Z,100990.64
2019-01-04T12:52:52.375Z,100993.77
2019-01-04T12:55:22.898Z,100994.72
2019-01-04T12:57:52.345Z,100993.91
2019-01-04T13:00:21.828Z,100983.52
2019-01-04T13:02:51.269Z,100978.13
2019-01-04T13:05:21.052Z,100984.42
2019-01-04T13:07:50.502Z,100978.48
2019-01-04T13:10:19.961Z,100985.38
2019-01-04T13:12:49.675Z,100980.07
2019-01-04T13:15:19.479Z,100975.22
2019-01-04T13:17:48.923Z,100977.75
2019-01-04T13:20:18.637Z,100976.11
2019-01-04T13:22:48.080Z,100979.16
2019-01-04T13:25:17.542Z,100957.84
2019-01-04T13:27:47.006Z,100974.20
2019-01-04T13:30:16.473Z,100976.25
2019-01-04T13:32:46.179Z,100981.20
2019-01-04T13:35:15.653Z,100982.63
2019-01-04T13:37:45.107Z,100982.02
2019-01-04T13:40:14.634Z,100986.92
2019-01-04T13:42:44.074Z,101004.20
2019-01-04T13:45:13.538Z,101004.47
2019-01-04T13:47:43.252Z,100996.28
2019-01-04T13:50:12.973Z,100999.22
2019-01-04T13:52:42.497Z,100994.95
2019-01-04T13:55:11.956Z,100985.71
2019-01-04T13:57:42.584Z,100987.03
2019-01-04T14:00:12.114Z,100969.53
2019-01-04T14:02:41.564Z,100980.43
2019-01-04T14:05:11.022Z,100969.75
2019-01-04T14:07:40.832Z,100974.02
2019-01-04T14:10:10.362Z,100967.19
2019-01-04T14:12:39.807Z,100974.39
2019-01-04T14:15:09.406Z,100961.34
2019-01-04T14:17:39.910Z,100960.74
2019-01-04T14:20:09.605Z,100970.47
2019-01-04T14:22:39.323Z,100954.73
2019-01-04T14:25:08.853Z,100956.56
2019-01-04T14:27:38.624Z,100955.17
2019-01-04T14:30:10.813Z,100952.13
2019-01-04T14:32:40.269Z,100958.10
2019-01-04T14:35:09.903Z,100960.74
2019-01-04T14:37:39.359Z,100961.47
2019-01-04T14:40:10.657Z,100961.84
2019-01-04T14:42:40.477Z,100958.70
2019-01-04T14:45:09.970Z,100949.96
2019-01-04T14:47:39.415Z,100938.59
2019-01-04T14:50:11.014Z,100936.25
2019-01-04T14:52:41.339Z,100922.94
2019-01-04T14:55:10.797Z,100896.91
2019-01-04T14:57:40.250Z,100902.19
2019-01-04T15:00:11.742Z,100890.60
2019-01-04T15:02:41.200Z,100884.41
2019-01-04T15:05:10.662Z,100867.05
2019-01-04T15:07:40.112Z,100859.94
2019-01-04T15:10:09.936Z,100859.24
2019-01-04T15:12:39.412Z,100868.19
2019-01-04T15:15:08.933Z,100851.64
2019-01-04T15:17:39.558Z,100855.47
2019-01-04T15:20:10.262Z,100851.13
2019-01-04T15:22:39.729Z,100851.94
2019-01-04T15:25:09.204Z,100849.92
2019-01-04T15:27:38.953Z,100846.87
2019-01-04T15:30:10.368Z,100842.61
2019-01-04T15:32:39.821Z,100845.98
2019-01-04T15:35:09.620Z,100841.80
2019-01-04T15:37:39.095Z,100843.53
2019-01-04T15:40:08.915Z,100846.46
2019-01-04T15:42:38.365Z,100849.42
2019-01-04T15:45:08.979Z,100846.29
2019-01-04T15:47:38.430Z,100847.61
2019-01-04T15:50:08.815Z,100867.71
2019-01-04T15:52:38.280Z,100872.41
2019-01-04T15:55:07.759Z,100876.05
2019-01-04T15:57:37.203Z,100861.33
2019-01-04T16:00:11.449Z,100852.81
2019-01-04T16:02:40.902Z,100846.20
2019-01-04T16:05:11.064Z,100840.08
2019-01-04T16:07:40.910Z,100830.03
2019-01-04T16:10:10.493Z,100828.20
2019-01-04T16:12:39.964Z,100819.89
2019-01-04T16:15:10.378Z,100815.00
2019-01-04T16:17:39.841Z,100804.76
2019-01-04T16:20:11.909Z,100802.12
2019-01-04T16:22:41.378Z,100797.94
2019-01-04T16:25:10.831Z,100796.52
2019-01-04T16:27:40.465Z,100796.32
2019-01-04T16:30:11.256Z,100800.19
2019-01-04T16:32:40.723Z,100791.84
2019-01-04T16:35:10.186Z,100789.20
2019-01-04T16:37:40.507Z,100775.70
2019-01-04T16:40:09.961Z,100784.83
2019-01-04T16:42:40.187Z,100780.77
2019-01-04T16:45:10.135Z,100774.67
2019-01-04T16:47:39.941Z,100777.64
2019-01-04T16:50:09.656Z,100785.75
2019-01-04T16:52:39.118Z,100793.78
2019-01-04T16:55:09.249Z,100787.17
2019-01-04T16:57:38.704Z,100787.38
2019-01-04T17:00:10.774Z,100783.22
2019-01-04T17:02:40.218Z,100779.97
2019-01-04T17:05:09.966Z,100780.67
2019-01-04T17:07:39.457Z,100768.08
2019-01-04T17:10:09.381Z,100762.59
2019-01-04T17:12:39.093Z,100763.08
2019-01-04T17:15:08.607Z,100770.20
2019-01-04T17:17:38.085Z,100773.16
2019-01-04T17:20:07.602Z,100767.98
2019-01-04T17:22:37.061Z,100767.55
2019-01-04T17:25:07.759Z,100771.62
2019-01-04T17:27:37.221Z,100771.52
2019-01-04T17:30:09.231Z,100779.77
2019-01-04T17:32:38.701Z,100770.72
2019-01-04T17:35:08.150Z,100765.73
2019-01-04T17:37:37.604Z,100761.18
2019-01-04T17:40:08.808Z,100763.50
2019-01-04T17:42:38.396Z,100759.83
2019-01-04T17:45:08.211Z,100768.69
2019-01-04T17:47:38.033Z,100766.34
2019-01-04T17:50:08.548Z,100765.73
2019-01-04T17:52:38.362Z,100765.14
2019-01-04T17:55:08.137Z,100761.47
2019-01-04T17:57:37.611Z,100758.51
2019-01-04T18:00:09.432Z,100763.28
2019-01-04T18:02:38.887Z,100773.27
2019-01-04T18:05:08.349Z,100766.24
2019-01-04T18:07:37.848Z,100762.09
2019-01-04T18:10:08.536Z,100751.91
2019-01-04T18:12:37.990Z,100740.34
2019-01-04T18:15:07.883Z,100743.69
2019-01-04T18:17:37.346Z,100745.72
2019-01-04T18:20:10.955Z,100748.65
2019-01-04T18:22:39.695Z,100753.03
2019-01-04T18:25:09.162Z,100761.77
2019-01-04T18:27:38.611Z,100757.90
2019-01-04T18:30:09.623Z,100751.09
2019-01-04T18:32:39.069Z,100755.35
2019-01-04T18:35:08.591Z,100751.00
2019-01-04T18:37:38.067Z,100751.71
2019-01-04T18:40:09.160Z,100755.77
2019-01-04T18:42:38.686Z,100750.48
2019-01-04T18:45:08.141Z,100753.61
2019-01-04T18:47:39.424Z,100757.98
2019-01-04T18:50:11.752Z,100758.70
2019-01-04T18:52:41.211Z,100759.20
2019-01-04T18:55:10.673Z,100763.44
2019-01-04T18:57:40.385Z,100760.34
2019-01-04T19:00:11.087Z,100769.80
2019-01-04T19:02:40.803Z,100769.45
2019-01-04T19:05:10.302Z,100767.94
2019-01-04T19:07:39.787Z,100771.40
2019-01-04T19:10:09.874Z,100771.11
2019-01-04T19:12:39.642Z,100778.94
2019-01-04T19:15:12.009Z,100775.46
2019-01-04T19:17:42.450Z,100774.27
2019-01-04T19:20:11.903Z,100774.75
2019-01-04T19:22:41.364Z,100785.64
2019-01-04T19:25:10.813Z,100785.94
2019-01-04T19:27:40.302Z,100779.65
2019-01-04T19:30:10.191Z,100782.48
2019-01-04T19:32:40.003Z,100783.70
2019-01-04T19:35:09.478Z,100782.77
2019-01-04T19:37:40.703Z,100779.61
2019-01-04T19:40:10.166Z,100785.31
2019-01-04T19:42:39.693Z,100784.28
2019-01-04T19:45:09.152Z,100777.77
2019-01-04T19:47:38.613Z,100786.45
2019-01-04T19:50:16.833Z,100774.31
2019-01-04T19:52:46.303Z,100769.22
2019-01-04T19:55:16.308Z,100775.35
2019-01-04T19:57:47.025Z,100770.54
2019-01-04T20:00:16.954Z,100763.13
2019-01-04T20:02:46.414Z,100772.37
2019-01-04T20:05:16.342Z,100773.08
2019-01-04T20:08:05.041Z,100776.34
2019-01-04T20:10:54.231Z,100783.88
2019-01-04T20:14:18.283Z,100773.50
2019-01-04T20:17:08.286Z,100771.56
2019-01-04T20:19:39.915Z,100769.44
2019-01-04T20:22:27.093Z,100763.11
2019-01-04T20:24:58.183Z,100763.11
2019-01-04T20:27:29.289Z,100756.08
2019-01-04T20:30:12.615Z,100758.33
2019-01-04T20:32:55.952Z,100750.06
2019-01-04T20:35:27.042Z,100740.20
2019-01-04T20:38:14.055Z,100735.00
2019-01-04T20:40:45.206Z,100732.17
2019-01-04T20:43:31.434Z,100731.36
2019-01-04T20:46:03.192Z,100729.53
2019-01-04T20:48:50.593Z,100726.77
2019-01-04T20:51:24.343Z,100721.95
2019-01-04T20:54:11.602Z,100713.62
2019-01-04T20:56:58.573Z,100716.98
2019-01-04T20:59:46.139Z,100702.09
2019-01-04T21:02:19.939Z,100696.80
2019-01-04T21:05:07.184Z,100696.60
2019-01-04T21:07:38.285Z,100693.44
2019-01-04T21:10:31.093Z,100690.87
2019-01-04T21:13:07.596Z,100686.39
2019-01-04T21:15:44.788Z,100683.27
2019-01-04T21:18:24.883Z,100678.25
2019-01-04T21:20:58.914Z,100680.06
2019-01-04T21:23:30.349Z,100688.20
2019-01-04T21:26:17.874Z,100693.90
2019-01-04T21:28:54.688Z,100701.41
2019-01-04T21:31:40.820Z,100706.98
2019-01-04T21:34:23.772Z,100705.14
2019-01-04T21:37:03.690Z,100701.17
2019-01-04T21:39:46.917Z,100699.22
2019-01-04T21:42:34.214Z,100688.34
2019-01-04T21:45:05.322Z,100689.31
2019-01-04T21:47:45.325Z,100684.11
2019-01-04T21:50:22.074Z,100686.67
2019-01-04T21:52:59.226Z,100683.91
2019-01-04T21:55:30.315Z,100673.84
2019-01-04T21:58:16.565Z,100670.67
2019-01-04T22:00:53.669Z,100670.75
2019-01-04T22:03:40.992Z,100674.81
2019-01-04T22:06:14.635Z,100669.14
2019-01-04T22:08:45.806Z,100665.27
2019-01-04T22:11:32.782Z,100664.66
2019-01-04T22:14:09.807Z,100665.34
2019-01-04T22:16:52.853Z,100663.21
2019-01-04T22:19:39.248Z,100656.32
2019-01-04T22:22:13.313Z,100648.38
2019-01-04T22:24:44.431Z,100650.14
2019-01-04T22:27:18.063Z,100644.92
2019-01-04T22:30:07.207Z,100639.63
2019-01-04T22:32:46.955Z,100632.41
2019-01-04T22:35:27.101Z,100638.67
2019-01-04T22:38:07.308Z,100627.20
2019-01-04T22:40:38.408Z,100621.78
2019-01-04T22:43:28.270Z,100617.73
2019-01-04T22:46:05.287Z,100619.94
2019-01-04T22:48:52.540Z,100617.29
2019-01-04T22:51:41.354Z,100609.34
2019-01-04T22:54:12.883Z,100608.34
2019-01-04T22:56:58.960Z,100602.52
2019-01-04T22:59:30.132Z,100603.17
2019-01-04T23:02:01.215Z,100604.18
2019-01-04T23:04:48.827Z,100602.20
2019-01-04T23:07:32.436Z,100600.68
2019-01-04T23:10:09.256Z,100587.88
2019-01-04T23:12:52.454Z,100585.39
2019-01-04T23:15:26.520Z,100585.67
2019-01-04T23:17:57.613Z,100576.05
2019-01-04T23:20:48.051Z,100562.16
2019-01-04T23:23:19.142Z,100562.36
2019-01-04T23:26:06.459Z,100552.09
2019-01-04T23:28:54.190Z,100554.96
2019-01-04T23:31:25.640Z,100546.50
2019-01-04T23:34:06.102Z,100552.15
2019-01-04T23:36:53.405Z,100548.03
2019-01-04T23:39:33.704Z,100553.27
2019-01-04T23:42:13.630Z,100545.32
2019-01-04T23:44:47.759Z,100543.41
2019-01-04T23:47:35.022Z,100532.73
2019-01-04T23:50:16.047Z,100535.25
2019-01-04T23:52:56.146Z,100531.86
2019-01-04T23:55:27.244Z,100531.94
2019-01-04T23:58:04.100Z,100536.70
